sensor_id;sensor_type;location;lat;lon;timestamp;P1;durP1;ratioP1;P2;durP2;ratioP2
4174;SDS011;2101;48.290;14.382;2023-08-17T00:00:44;25.30;;;6.33;;
4174;SDS011;2101;48.290;14.382;2023-08-17T00:03:10;22.90;;;5.70;;
4174;SDS011;2101;48.290;14.382;2023-08-17T00:05:36;18.97;;;5.40;;
4174;SDS011;2101;48.290;14.382;2023-08-17T00:08:02;22.33;;;5.33;;
4174;SDS011;2101;48.290;14.382;2023-08-17T00:10:28;19.53;;;5.00;;
4174;SDS011;2101;48.290;14.382;2023-08-17T00:12:54;20.37;;;5.90;;
4174;SDS011;2101;48.290;14.382;2023-08-17T00:15:21;24.87;;;4.87;;
4174;SDS011;2101;48.290;14.382;2023-08-17T00:17:47;24.70;;;5.37;;
4174;SDS011;2101;48.290;14.382;2023-08-17T00:20:13;23.60;;;5.40;;
4174;SDS011;2101;48.290;14.382;2023-08-17T00:22:39;23.73;;;5.80;;
4174;SDS011;2101;48.290;14.382;2023-08-17T00:25:05;20.73;;;4.90;;
4174;SDS011;2101;48.290;14.382;2023-08-17T00:27:32;21.10;;;5.23;;
4174;SDS011;2101;48.290;14.382;2023-08-17T00:29:58;24.03;;;5.37;;
4174;SDS011;2101;48.290;14.382;2023-08-17T00:32:24;22.60;;;5.83;;
4174;SDS011;2101;48.290;14.382;2023-08-17T00:34:50;20.80;;;6.07;;
4174;SDS011;2101;48.290;14.382;2023-08-17T00:37:16;21.50;;;5.30;;
4174;SDS011;2101;48.290;14.382;2023-08-17T00:39:42;20.20;;;5.60;;
4174;SDS011;2101;48.290;14.382;2023-08-17T00:42:08;19.80;;;5.63;;
4174;SDS011;2101;48.290;14.382;2023-08-17T00:44:35;20.43;;;5.50;;
4174;SDS011;2101;48.290;14.382;2023-08-17T00:47:01;32.47;;;5.53;;
4174;SDS011;2101;48.290;14.382;2023-08-17T00:49:27;20.17;;;5.30;;
4174;SDS011;2101;48.290;14.382;2023-08-17T00:51:53;20.93;;;6.40;;
4174;SDS011;2101;48.290;14.382;2023-08-17T00:54:20;19.67;;;5.70;;
4174;SDS011;2101;48.290;14.382;2023-08-17T00:56:49;22.37;;;5.80;;
4174;SDS011;2101;48.290;14.382;2023-08-17T00:59:15;19.70;;;5.37;;
4174;SDS011;2101;48.290;14.382;2023-08-17T01:01:41;23.63;;;6.43;;
4174;SDS011;2101;48.290;14.382;2023-08-17T01:04:08;21.33;;;5.90;;
4174;SDS011;2101;48.290;14.382;2023-08-17T01:06:34;21.40;;;6.33;;
4174;SDS011;2101;48.290;14.382;2023-08-17T01:09:00;19.93;;;5.90;;
4174;SDS011;2101;48.290;14.382;2023-08-17T01:11:34;23.63;;;6.70;;
4174;SDS011;2101;48.290;14.382;2023-08-17T01:14:07;20.80;;;6.13;;
4174;SDS011;2101;48.290;14.382;2023-08-17T01:16:40;21.33;;;6.83;;
4174;SDS011;2101;48.290;14.382;2023-08-17T01:19:08;23.23;;;6.63;;
4174;SDS011;2101;48.290;14.382;2023-08-17T01:21:41;21.40;;;5.60;;
4174;SDS011;2101;48.290;14.382;2023-08-17T01:24:13;24.57;;;6.23;;
4174;SDS011;2101;48.290;14.382;2023-08-17T01:26:40;19.53;;;5.93;;
4174;SDS011;2101;48.290;14.382;2023-08-17T01:29:06;20.87;;;6.43;;
4174;SDS011;2101;48.290;14.382;2023-08-17T01:31:36;30.33;;;5.40;;
4174;SDS011;2101;48.290;14.382;2023-08-17T01:34:07;28.17;;;5.50;;
4174;SDS011;2101;48.290;14.382;2023-08-17T01:36:37;20.47;;;5.77;;
4174;SDS011;2101;48.290;14.382;2023-08-17T01:39:03;20.47;;;6.40;;
4174;SDS011;2101;48.290;14.382;2023-08-17T01:41:33;19.87;;;6.10;;
4174;SDS011;2101;48.290;14.382;2023-08-17T01:44:00;23.47;;;6.87;;
4174;SDS011;2101;48.290;14.382;2023-08-17T01:46:29;24.70;;;6.60;;
4174;SDS011;2101;48.290;14.382;2023-08-17T01:48:56;22.60;;;6.90;;
4174;SDS011;2101;48.290;14.382;2023-08-17T01:51:22;31.13;;;6.00;;
4174;SDS011;2101;48.290;14.382;2023-08-17T01:53:49;22.97;;;5.90;;
4174;SDS011;2101;48.290;14.382;2023-08-17T01:56:15;20.07;;;5.70;;
4174;SDS011;2101;48.290;14.382;2023-08-17T01:58:41;25.47;;;7.87;;
4174;SDS011;2101;48.290;14.382;2023-08-17T02:01:07;23.80;;;6.10;;
4174;SDS011;2101;48.290;14.382;2023-08-17T02:03:33;20.00;;;5.80;;
4174;SDS011;2101;48.290;14.382;2023-08-17T02:05:59;21.13;;;6.17;;
4174;SDS011;2101;48.290;14.382;2023-08-17T02:08:25;21.40;;;5.70;;
4174;SDS011;2101;48.290;14.382;2023-08-17T02:10:51;22.00;;;5.87;;
4174;SDS011;2101;48.290;14.382;2023-08-17T02:13:18;21.77;;;5.87;;
4174;SDS011;2101;48.290;14.382;2023-08-17T02:15:49;23.70;;;6.07;;
4174;SDS011;2101;48.290;14.382;2023-08-17T02:18:18;20.10;;;6.00;;
4174;SDS011;2101;48.290;14.382;2023-08-17T02:20:44;20.87;;;5.60;;
4174;SDS011;2101;48.290;14.382;2023-08-17T02:23:10;20.70;;;6.40;;
4174;SDS011;2101;48.290;14.382;2023-08-17T02:25:40;22.47;;;6.00;;
4174;SDS011;2101;48.290;14.382;2023-08-17T02:28:06;23.23;;;6.27;;
4174;SDS011;2101;48.290;14.382;2023-08-17T02:30:38;24.13;;;6.80;;
4174;SDS011;2101;48.290;14.382;2023-08-17T02:33:04;22.10;;;6.37;;
4174;SDS011;2101;48.290;14.382;2023-08-17T02:35:30;20.17;;;5.77;;
4174;SDS011;2101;48.290;14.382;2023-08-17T02:37:56;25.10;;;6.80;;
4174;SDS011;2101;48.290;14.382;2023-08-17T02:40:26;21.70;;;6.47;;
4174;SDS011;2101;48.290;14.382;2023-08-17T02:42:52;22.93;;;6.27;;
4174;SDS011;2101;48.290;14.382;2023-08-17T02:45:18;21.30;;;5.87;;
4174;SDS011;2101;48.290;14.382;2023-08-17T02:47:45;22.93;;;5.63;;
4174;SDS011;2101;48.290;14.382;2023-08-17T02:50:12;21.50;;;6.27;;
4174;SDS011;2101;48.290;14.382;2023-08-17T02:52:38;23.97;;;6.33;;
4174;SDS011;2101;48.290;14.382;2023-08-17T02:55:04;19.50;;;5.53;;
4174;SDS011;2101;48.290;14.382;2023-08-17T02:57:30;20.23;;;5.83;;
4174;SDS011;2101;48.290;14.382;2023-08-17T02:59:57;19.47;;;5.80;;
4174;SDS011;2101;48.290;14.382;2023-08-17T03:02:23;20.40;;;6.10;;
4174;SDS011;2101;48.290;14.382;2023-08-17T03:04:49;22.87;;;6.00;;
4174;SDS011;2101;48.290;14.382;2023-08-17T03:07:21;21.27;;;6.43;;
4174;SDS011;2101;48.290;14.382;2023-08-17T03:09:47;22.50;;;6.67;;
4174;SDS011;2101;48.290;14.382;2023-08-17T03:12:13;20.20;;;6.10;;
4174;SDS011;2101;48.290;14.382;2023-08-17T03:14:39;22.10;;;6.40;;
4174;SDS011;2101;48.290;14.382;2023-08-17T03:17:05;21.23;;;6.40;;
4174;SDS011;2101;48.290;14.382;2023-08-17T03:19:31;21.20;;;6.20;;
4174;SDS011;2101;48.290;14.382;2023-08-17T03:21:57;21.97;;;6.47;;
4174;SDS011;2101;48.290;14.382;2023-08-17T03:24:28;26.30;;;6.40;;
4174;SDS011;2101;48.290;14.382;2023-08-17T03:26:54;21.47;;;6.10;;
4174;SDS011;2101;48.290;14.382;2023-08-17T03:29:20;23.67;;;6.33;;
4174;SDS011;2101;48.290;14.382;2023-08-17T03:31:46;22.57;;;6.53;;
4174;SDS011;2101;48.290;14.382;2023-08-17T03:34:12;20.50;;;6.00;;
4174;SDS011;2101;48.290;14.382;2023-08-17T03:36:38;22.20;;;6.10;;
4174;SDS011;2101;48.290;14.382;2023-08-17T03:39:06;22.03;;;7.00;;
4174;SDS011;2101;48.290;14.382;2023-08-17T03:41:32;23.37;;;6.17;;
4174;SDS011;2101;48.290;14.382;2023-08-17T03:43:58;35.23;;;5.80;;
4174;SDS011;2101;48.290;14.382;2023-08-17T03:46:23;24.57;;;6.10;;
4174;SDS011;2101;48.290;14.382;2023-08-17T03:48:49;21.27;;;6.17;;
4174;SDS011;2101;48.290;14.382;2023-08-17T03:51:15;24.70;;;6.00;;
4174;SDS011;2101;48.290;14.382;2023-08-17T03:53:44;24.63;;;5.70;;
4174;SDS011;2101;48.290;14.382;2023-08-17T03:56:09;22.90;;;5.70;;
4174;SDS011;2101;48.290;14.382;2023-08-17T03:58:35;23.57;;;6.00;;
4174;SDS011;2101;48.290;14.382;2023-08-17T04:01:01;19.10;;;5.00;;
4174;SDS011;2101;48.290;14.382;2023-08-17T04:03:27;20.90;;;6.23;;
4174;SDS011;2101;48.290;14.382;2023-08-17T04:05:55;25.80;;;5.70;;
4174;SDS011;2101;48.290;14.382;2023-08-17T04:08:21;19.90;;;5.77;;
4174;SDS011;2101;48.290;14.382;2023-08-17T04:10:47;24.80;;;6.20;;
4174;SDS011;2101;48.290;14.382;2023-08-17T04:13:17;20.40;;;5.30;;
4174;SDS011;2101;48.290;14.382;2023-08-17T04:15:43;20.07;;;6.10;;
4174;SDS011;2101;48.290;14.382;2023-08-17T04:18:11;20.23;;;5.87;;
4174;SDS011;2101;48.290;14.382;2023-08-17T04:20:36;20.40;;;5.77;;
4174;SDS011;2101;48.290;14.382;2023-08-17T04:23:02;19.00;;;4.90;;
4174;SDS011;2101;48.290;14.382;2023-08-17T04:25:28;22.80;;;5.60;;
4174;SDS011;2101;48.290;14.382;2023-08-17T04:27:54;21.67;;;4.87;;
4174;SDS011;2101;48.290;14.382;2023-08-17T04:30:20;25.80;;;5.03;;
4174;SDS011;2101;48.290;14.382;2023-08-17T04:32:46;24.97;;;5.93;;
4174;SDS011;2101;48.290;14.382;2023-08-17T04:35:17;19.30;;;4.90;;
4174;SDS011;2101;48.290;14.382;2023-08-17T04:37:46;19.03;;;4.90;;
4174;SDS011;2101;48.290;14.382;2023-08-17T04:40:12;21.60;;;5.30;;
4174;SDS011;2101;48.290;14.382;2023-08-17T04:42:38;19.10;;;5.30;;
4174;SDS011;2101;48.290;14.382;2023-08-17T04:45:07;19.43;;;5.10;;
4174;SDS011;2101;48.290;14.382;2023-08-17T04:47:33;20.57;;;4.47;;
4174;SDS011;2101;48.290;14.382;2023-08-17T04:49:59;17.97;;;4.60;;
4174;SDS011;2101;48.290;14.382;2023-08-17T04:52:25;18.03;;;3.90;;
4174;SDS011;2101;48.290;14.382;2023-08-17T04:54:50;20.40;;;4.70;;
4174;SDS011;2101;48.290;14.382;2023-08-17T04:57:16;19.43;;;5.57;;
4174;SDS011;2101;48.290;14.382;2023-08-17T04:59:43;19.20;;;5.07;;
4174;SDS011;2101;48.290;14.382;2023-08-17T05:02:09;18.00;;;4.13;;
4174;SDS011;2101;48.290;14.382;2023-08-17T05:04:35;18.53;;;5.00;;
4174;SDS011;2101;48.290;14.382;2023-08-17T05:07:01;21.33;;;5.00;;
4174;SDS011;2101;48.290;14.382;2023-08-17T05:09:27;17.57;;;4.30;;
4174;SDS011;2101;48.290;14.382;2023-08-17T05:11:55;20.53;;;4.90;;
4174;SDS011;2101;48.290;14.382;2023-08-17T05:14:21;19.40;;;4.53;;
4174;SDS011;2101;48.290;14.382;2023-08-17T05:16:46;18.83;;;4.33;;
4174;SDS011;2101;48.290;14.382;2023-08-17T05:21:48;20.77;;;5.13;;
4174;SDS011;2101;48.290;14.382;2023-08-17T05:24:19;19.17;;;4.57;;
4174;SDS011;2101;48.290;14.382;2023-08-17T05:26:45;22.87;;;5.27;;
4174;SDS011;2101;48.290;14.382;2023-08-17T05:29:13;18.70;;;4.93;;
4174;SDS011;2101;48.290;14.382;2023-08-17T05:31:42;18.10;;;4.63;;
4174;SDS011;2101;48.290;14.382;2023-08-17T05:34:11;18.00;;;4.30;;
4174;SDS011;2101;48.290;14.382;2023-08-17T05:36:43;20.90;;;4.70;;
4174;SDS011;2101;48.290;14.382;2023-08-17T05:39:13;19.57;;;4.67;;
4174;SDS011;2101;48.290;14.382;2023-08-17T05:41:42;18.90;;;3.87;;
4174;SDS011;2101;48.290;14.382;2023-08-17T05:44:09;18.07;;;4.20;;
4174;SDS011;2101;48.290;14.382;2023-08-17T05:46:36;17.47;;;4.13;;
4174;SDS011;2101;48.290;14.382;2023-08-17T05:49:03;16.70;;;4.23;;
4174;SDS011;2101;48.290;14.382;2023-08-17T05:51:30;15.90;;;3.30;;
4174;SDS011;2101;48.290;14.382;2023-08-17T05:53:57;22.50;;;3.90;;
4174;SDS011;2101;48.290;14.382;2023-08-17T05:56:24;20.47;;;3.83;;
4174;SDS011;2101;48.290;14.382;2023-08-17T05:58:51;16.67;;;3.50;;
4174;SDS011;2101;48.290;14.382;2023-08-17T06:01:19;16.40;;;3.60;;
4174;SDS011;2101;48.290;14.382;2023-08-17T06:03:47;20.50;;;3.10;;
4174;SDS011;2101;48.290;14.382;2023-08-17T06:06:17;18.50;;;3.47;;
4174;SDS011;2101;48.290;14.382;2023-08-17T06:11:28;15.20;;;3.30;;
4174;SDS011;2101;48.290;14.382;2023-08-17T06:21:31;16.03;;;3.37;;
4174;SDS011;2101;48.290;14.382;2023-08-17T06:24:38;22.70;;;3.50;;
4174;SDS011;2101;48.290;14.382;2023-08-17T06:41:21;20.13;;;3.30;;
4174;SDS011;2101;48.290;14.382;2023-08-17T07:10:16;16.77;;;3.72;;
4174;SDS011;2101;48.290;14.382;2023-08-17T07:16:40;16.70;;;3.70;;
4174;SDS011;2101;48.290;14.382;2023-08-17T07:23:22;15.02;;;3.53;;
4174;SDS011;2101;48.290;14.382;2023-08-17T07:26:29;18.52;;;4.10;;
4174;SDS011;2101;48.290;14.382;2023-08-17T07:41:09;16.33;;;3.85;;
4174;SDS011;2101;48.290;14.382;2023-08-17T07:44:08;17.05;;;3.78;;
4174;SDS011;2101;48.290;14.382;2023-08-17T07:47:17;16.27;;;3.85;;
4174;SDS011;2101;48.290;14.382;2023-08-17T07:50:36;15.20;;;3.85;;
4174;SDS011;2101;48.290;14.382;2023-08-17T07:53:42;15.57;;;3.97;;
4174;SDS011;2101;48.290;14.382;2023-08-17T08:04:03;17.50;;;4.57;;
4174;SDS011;2101;48.290;14.382;2023-08-17T08:06:51;16.50;;;3.80;;
4174;SDS011;2101;48.290;14.382;2023-08-17T08:10:23;15.63;;;3.33;;
4174;SDS011;2101;48.290;14.382;2023-08-17T08:18:56;17.23;;;3.70;;
4174;SDS011;2101;48.290;14.382;2023-08-17T08:35:49;15.13;;;3.90;;
4174;SDS011;2101;48.290;14.382;2023-08-17T08:53:15;17.02;;;3.90;;
4174;SDS011;2101;48.290;14.382;2023-08-17T08:55:49;16.38;;;4.32;;
4174;SDS011;2101;48.290;14.382;2023-08-17T08:58:24;16.20;;;3.88;;
4174;SDS011;2101;48.290;14.382;2023-08-17T09:00:53;17.73;;;4.07;;
4174;SDS011;2101;48.290;14.382;2023-08-17T09:03:20;25.03;;;4.73;;
4174;SDS011;2101;48.290;14.382;2023-08-17T09:05:51;18.17;;;4.63;;
4174;SDS011;2101;48.290;14.382;2023-08-17T09:08:20;17.57;;;4.60;;
4174;SDS011;2101;48.290;14.382;2023-08-17T09:10:48;19.23;;;4.07;;
4174;SDS011;2101;48.290;14.382;2023-08-17T09:13:16;20.13;;;5.63;;
4174;SDS011;2101;48.290;14.382;2023-08-17T09:15:44;22.90;;;5.20;;
4174;SDS011;2101;48.290;14.382;2023-08-17T09:18:18;19.00;;;4.07;;
4174;SDS011;2101;48.290;14.382;2023-08-17T09:20:51;19.67;;;4.53;;
4174;SDS011;2101;48.290;14.382;2023-08-17T09:23:38;19.00;;;4.40;;
4174;SDS011;2101;48.290;14.382;2023-08-17T09:26:07;19.87;;;5.10;;
4174;SDS011;2101;48.290;14.382;2023-08-17T09:28:38;20.43;;;4.40;;
4174;SDS011;2101;48.290;14.382;2023-08-17T09:31:07;19.40;;;4.13;;
4174;SDS011;2101;48.290;14.382;2023-08-17T09:33:33;20.97;;;4.80;;
4174;SDS011;2101;48.290;14.382;2023-08-17T09:36:09;17.87;;;3.80;;
4174;SDS011;2101;48.290;14.382;2023-08-17T09:38:47;22.50;;;4.63;;
4174;SDS011;2101;48.290;14.382;2023-08-17T09:41:37;22.30;;;4.73;;
4174;SDS011;2101;48.290;14.382;2023-08-17T09:44:08;22.43;;;4.40;;
4174;SDS011;2101;48.290;14.382;2023-08-17T09:46:36;18.50;;;4.17;;
4174;SDS011;2101;48.290;14.382;2023-08-17T09:49:06;17.50;;;4.63;;
4174;SDS011;2101;48.290;14.382;2023-08-17T09:51:36;16.93;;;4.20;;
4174;SDS011;2101;48.290;14.382;2023-08-17T09:54:05;21.43;;;4.53;;
4174;SDS011;2101;48.290;14.382;2023-08-17T09:56:56;18.43;;;4.70;;
4174;SDS011;2101;48.290;14.382;2023-08-17T09:59:26;17.70;;;4.30;;
4174;SDS011;2101;48.290;14.382;2023-08-17T10:01:56;20.63;;;4.03;;
4174;SDS011;2101;48.290;14.382;2023-08-17T10:04:35;18.73;;;4.80;;
4174;SDS011;2101;48.290;14.382;2023-08-17T10:09:55;17.87;;;4.67;;
4174;SDS011;2101;48.290;14.382;2023-08-17T10:12:59;20.47;;;4.23;;
4174;SDS011;2101;48.290;14.382;2023-08-17T10:15:32;16.90;;;4.10;;
4174;SDS011;2101;48.290;14.382;2023-08-17T10:18:17;25.77;;;4.90;;
4174;SDS011;2101;48.290;14.382;2023-08-17T10:21:22;17.40;;;4.43;;
4174;SDS011;2101;48.290;14.382;2023-08-17T10:23:55;17.33;;;4.40;;
4174;SDS011;2101;48.290;14.382;2023-08-17T10:26:23;18.50;;;4.27;;
4174;SDS011;2101;48.290;14.382;2023-08-17T10:28:51;19.50;;;3.97;;
4174;SDS011;2101;48.290;14.382;2023-08-17T10:31:22;18.73;;;4.60;;
4174;SDS011;2101;48.290;14.382;2023-08-17T10:33:52;16.57;;;4.20;;
4174;SDS011;2101;48.290;14.382;2023-08-17T10:36:19;17.57;;;4.00;;
4174;SDS011;2101;48.290;14.382;2023-08-17T10:38:46;18.50;;;4.50;;
4174;SDS011;2101;48.290;14.382;2023-08-17T10:41:13;19.93;;;4.90;;
4174;SDS011;2101;48.290;14.382;2023-08-17T10:43:55;18.90;;;4.40;;
4174;SDS011;2101;48.290;14.382;2023-08-17T10:46:37;15.70;;;3.70;;
4174;SDS011;2101;48.290;14.382;2023-08-17T10:49:25;19.10;;;4.23;;
4174;SDS011;2101;48.290;14.382;2023-08-17T10:52:06;15.83;;;4.10;;
4174;SDS011;2101;48.290;14.382;2023-08-17T10:54:38;16.10;;;4.03;;
4174;SDS011;2101;48.290;14.382;2023-08-17T10:57:24;16.97;;;3.83;;
4174;SDS011;2101;48.290;14.382;2023-08-17T11:09:15;22.37;;;3.93;;
4174;SDS011;2101;48.290;14.382;2023-08-17T11:12:29;17.23;;;4.43;;
4174;SDS011;2101;48.290;14.382;2023-08-17T11:18:26;16.40;;;3.80;;
4174;SDS011;2101;48.290;14.382;2023-08-17T11:21:03;16.87;;;3.70;;
4174;SDS011;2101;48.290;14.382;2023-08-17T11:23:33;18.80;;;4.60;;
4174;SDS011;2101;48.290;14.382;2023-08-17T11:26:15;23.70;;;4.57;;
4174;SDS011;2101;48.290;14.382;2023-08-17T11:28:50;29.20;;;3.97;;
4174;SDS011;2101;48.290;14.382;2023-08-17T11:49:31;22.50;;;4.17;;
4174;SDS011;2101;48.290;14.382;2023-08-17T11:51:57;23.83;;;3.40;;
4174;SDS011;2101;48.290;14.382;2023-08-17T11:54:39;17.48;;;3.92;;
4174;SDS011;2101;48.290;14.382;2023-08-17T12:08:14;17.48;;;3.53;;
4174;SDS011;2101;48.290;14.382;2023-08-17T12:10:55;18.77;;;3.20;;
4174;SDS011;2101;48.290;14.382;2023-08-17T12:13:38;15.63;;;3.40;;
4174;SDS011;2101;48.290;14.382;2023-08-17T12:16:16;17.90;;;3.58;;
4174;SDS011;2101;48.290;14.382;2023-08-17T12:18:50;20.77;;;3.40;;
4174;SDS011;2101;48.290;14.382;2023-08-17T12:21:29;18.38;;;4.03;;
4174;SDS011;2101;48.290;14.382;2023-08-17T12:24:08;20.87;;;4.33;;
4174;SDS011;2101;48.290;14.382;2023-08-17T12:26:37;15.65;;;3.60;;
4174;SDS011;2101;48.290;14.382;2023-08-17T12:29:14;16.83;;;3.60;;
4174;SDS011;2101;48.290;14.382;2023-08-17T12:31:51;15.77;;;3.70;;
4174;SDS011;2101;48.290;14.382;2023-08-17T12:34:33;14.90;;;2.83;;
4174;SDS011;2101;48.290;14.382;2023-08-17T12:37:02;17.27;;;3.00;;
4174;SDS011;2101;48.290;14.382;2023-08-17T12:39:28;15.88;;;2.90;;
4174;SDS011;2101;48.290;14.382;2023-08-17T12:41:59;22.45;;;3.55;;
4174;SDS011;2101;48.290;14.382;2023-08-17T12:44:28;16.08;;;3.50;;
4174;SDS011;2101;48.290;14.382;2023-08-17T12:47:05;15.68;;;2.95;;
4174;SDS011;2101;48.290;14.382;2023-08-17T12:49:36;15.40;;;2.88;;
4174;SDS011;2101;48.290;14.382;2023-08-17T12:52:09;14.95;;;2.70;;
4174;SDS011;2101;48.290;14.382;2023-08-17T12:54:41;14.95;;;3.08;;
4174;SDS011;2101;48.290;14.382;2023-08-17T12:57:12;15.10;;;3.40;;
4174;SDS011;2101;48.290;14.382;2023-08-17T12:59:49;14.02;;;2.75;;
4174;SDS011;2101;48.290;14.382;2023-08-17T13:02:36;16.70;;;2.90;;
4174;SDS011;2101;48.290;14.382;2023-08-17T13:05:50;18.95;;;3.65;;
4174;SDS011;2101;48.290;14.382;2023-08-17T13:14:49;16.48;;;3.33;;
4174;SDS011;2101;48.290;14.382;2023-08-17T13:17:40;18.42;;;2.63;;
4174;SDS011;2101;48.290;14.382;2023-08-17T13:40:09;21.02;;;3.08;;
4174;SDS011;2101;48.290;14.382;2023-08-17T13:42:43;15.23;;;2.40;;
4174;SDS011;2101;48.290;14.382;2023-08-17T13:45:12;15.73;;;2.30;;
4174;SDS011;2101;48.290;14.382;2023-08-17T13:47:42;14.48;;;2.33;;
4174;SDS011;2101;48.290;14.382;2023-08-17T13:50:09;14.73;;;2.42;;
4174;SDS011;2101;48.290;14.382;2023-08-17T13:52:44;14.50;;;2.50;;
4174;SDS011;2101;48.290;14.382;2023-08-17T13:55:12;14.73;;;2.25;;
4174;SDS011;2101;48.290;14.382;2023-08-17T13:57:38;13.57;;;2.17;;
4174;SDS011;2101;48.290;14.382;2023-08-17T14:00:04;15.98;;;2.00;;
4174;SDS011;2101;48.290;14.382;2023-08-17T14:02:31;13.43;;;2.30;;
4174;SDS011;2101;48.290;14.382;2023-08-17T14:04:57;15.10;;;2.20;;
4174;SDS011;2101;48.290;14.382;2023-08-17T14:07:23;14.30;;;1.75;;
4174;SDS011;2101;48.290;14.382;2023-08-17T14:09:49;13.85;;;2.10;;
4174;SDS011;2101;48.290;14.382;2023-08-17T14:12:16;14.20;;;1.92;;
4174;SDS011;2101;48.290;14.382;2023-08-17T14:14:42;15.07;;;2.10;;
4174;SDS011;2101;48.290;14.382;2023-08-17T14:17:08;13.50;;;2.00;;
4174;SDS011;2101;48.290;14.382;2023-08-17T14:19:34;13.85;;;1.80;;
4174;SDS011;2101;48.290;14.382;2023-08-17T14:22:01;17.73;;;2.42;;
4174;SDS011;2101;48.290;14.382;2023-08-17T14:24:27;18.45;;;2.17;;
4174;SDS011;2101;48.290;14.382;2023-08-17T14:26:53;13.95;;;2.20;;
4174;SDS011;2101;48.290;14.382;2023-08-17T14:29:21;13.23;;;1.60;;
4174;SDS011;2101;48.290;14.382;2023-08-17T14:31:49;13.88;;;1.92;;
4174;SDS011;2101;48.290;14.382;2023-08-17T14:34:21;14.13;;;1.90;;
4174;SDS011;2101;48.290;14.382;2023-08-17T16:27:57;14.80;;;2.30;;
4174;SDS011;2101;48.290;14.382;2023-08-17T16:40:46;17.77;;;2.40;;
4174;SDS011;2101;48.290;14.382;2023-08-17T16:43:14;14.10;;;2.40;;
4174;SDS011;2101;48.290;14.382;2023-08-17T16:45:41;14.00;;;2.07;;
4174;SDS011;2101;48.290;14.382;2023-08-17T19:33:59;21.10;;;4.20;;
4174;SDS011;2101;48.290;14.382;2023-08-17T19:36:28;17.20;;;3.43;;
4174;SDS011;2101;48.290;14.382;2023-08-17T19:38:54;18.23;;;3.47;;
4174;SDS011;2101;48.290;14.382;2023-08-17T19:41:20;17.17;;;3.67;;
4174;SDS011;2101;48.290;14.382;2023-08-17T19:43:45;15.60;;;3.13;;
4174;SDS011;2101;48.290;14.382;2023-08-17T19:46:11;17.40;;;3.43;;
4174;SDS011;2101;48.290;14.382;2023-08-17T19:48:39;17.60;;;3.60;;
4174;SDS011;2101;48.290;14.382;2023-08-17T19:51:05;19.27;;;3.50;;
4174;SDS011;2101;48.290;14.382;2023-08-17T19:53:31;20.70;;;4.33;;
4174;SDS011;2101;48.290;14.382;2023-08-17T19:55:57;18.43;;;3.43;;
4174;SDS011;2101;48.290;14.382;2023-08-17T19:58:24;17.00;;;3.63;;
4174;SDS011;2101;48.290;14.382;2023-08-17T20:00:50;16.00;;;3.30;;
4174;SDS011;2101;48.290;14.382;2023-08-17T20:03:17;19.33;;;3.90;;
4174;SDS011;2101;48.290;14.382;2023-08-17T20:05:45;16.70;;;3.80;;
4174;SDS011;2101;48.290;14.382;2023-08-17T20:08:11;19.90;;;4.50;;
4174;SDS011;2101;48.290;14.382;2023-08-17T20:10:37;17.23;;;3.73;;
4174;SDS011;2101;48.290;14.382;2023-08-17T20:13:04;18.97;;;3.53;;
4174;SDS011;2101;48.290;14.382;2023-08-17T20:15:30;18.00;;;3.30;;
4174;SDS011;2101;48.290;14.382;2023-08-17T20:17:55;17.00;;;3.50;;
4174;SDS011;2101;48.290;14.382;2023-08-17T20:20:21;17.90;;;3.83;;
4174;SDS011;2101;48.290;14.382;2023-08-17T20:22:47;17.17;;;3.57;;
4174;SDS011;2101;48.290;14.382;2023-08-17T20:25:13;15.80;;;2.90;;
4174;SDS011;2101;48.290;14.382;2023-08-17T20:27:42;16.20;;;3.27;;
4174;SDS011;2101;48.290;14.382;2023-08-17T20:30:08;17.17;;;3.40;;
4174;SDS011;2101;48.290;14.382;2023-08-17T20:32:34;22.40;;;4.13;;
4174;SDS011;2101;48.290;14.382;2023-08-17T20:35:00;18.80;;;3.77;;
4174;SDS011;2101;48.290;14.382;2023-08-17T20:37:25;19.57;;;3.90;;
4174;SDS011;2101;48.290;14.382;2023-08-17T20:39:51;18.43;;;3.33;;
4174;SDS011;2101;48.290;14.382;2023-08-17T20:42:17;18.07;;;3.20;;
4174;SDS011;2101;48.290;14.382;2023-08-17T20:44:43;17.60;;;3.50;;
4174;SDS011;2101;48.290;14.382;2023-08-17T20:47:09;17.27;;;3.27;;
4174;SDS011;2101;48.290;14.382;2023-08-17T20:49:37;22.10;;;3.47;;
4174;SDS011;2101;48.290;14.382;2023-08-17T20:52:05;18.23;;;3.60;;
4174;SDS011;2101;48.290;14.382;2023-08-17T20:54:31;26.93;;;3.77;;
4174;SDS011;2101;48.290;14.382;2023-08-17T20:56:57;16.70;;;3.20;;
4174;SDS011;2101;48.290;14.382;2023-08-17T20:59:23;16.10;;;3.47;;
4174;SDS011;2101;48.290;14.382;2023-08-17T21:01:52;18.50;;;3.70;;
4174;SDS011;2101;48.290;14.382;2023-08-17T21:04:17;20.80;;;3.33;;
4174;SDS011;2101;48.290;14.382;2023-08-17T21:06:43;19.60;;;3.70;;
4174;SDS011;2101;48.290;14.382;2023-08-17T21:09:09;22.33;;;4.23;;
4174;SDS011;2101;48.290;14.382;2023-08-17T21:11:38;21.97;;;3.10;;
4174;SDS011;2101;48.290;14.382;2023-08-17T21:14:04;17.70;;;3.37;;
4174;SDS011;2101;48.290;14.382;2023-08-17T21:16:30;20.77;;;3.90;;
4174;SDS011;2101;48.290;14.382;2023-08-17T21:18:56;17.60;;;4.00;;
4174;SDS011;2101;48.290;14.382;2023-08-17T21:21:28;19.33;;;3.63;;
4174;SDS011;2101;48.290;14.382;2023-08-17T21:23:54;18.13;;;3.40;;
4174;SDS011;2101;48.290;14.382;2023-08-17T21:26:20;15.50;;;2.90;;
4174;SDS011;2101;48.290;14.382;2023-08-17T21:28:50;17.33;;;3.13;;
4174;SDS011;2101;48.290;14.382;2023-08-17T21:31:19;17.10;;;3.30;;
4174;SDS011;2101;48.290;14.382;2023-08-17T21:33:44;20.20;;;3.70;;
4174;SDS011;2101;48.290;14.382;2023-08-17T21:36:10;28.63;;;3.37;;
4174;SDS011;2101;48.290;14.382;2023-08-17T21:38:36;18.03;;;3.17;;
4174;SDS011;2101;48.290;14.382;2023-08-17T21:41:02;15.33;;;2.70;;
4174;SDS011;2101;48.290;14.382;2023-08-17T21:43:29;18.90;;;3.70;;
4174;SDS011;2101;48.290;14.382;2023-08-17T21:45:55;17.50;;;3.43;;
4174;SDS011;2101;48.290;14.382;2023-08-17T21:48:22;15.40;;;2.90;;
4174;SDS011;2101;48.290;14.382;2023-08-17T21:50:48;16.73;;;2.60;;
4174;SDS011;2101;48.290;14.382;2023-08-17T21:53:14;18.43;;;3.27;;
4174;SDS011;2101;48.290;14.382;2023-08-17T21:55:49;18.43;;;3.17;;
4174;SDS011;2101;48.290;14.382;2023-08-17T21:58:16;19.50;;;3.57;;
4174;SDS011;2101;48.290;14.382;2023-08-17T22:00:46;15.87;;;3.20;;
4174;SDS011;2101;48.290;14.382;2023-08-17T22:03:13;16.13;;;3.27;;
4174;SDS011;2101;48.290;14.382;2023-08-17T22:05:40;16.73;;;3.33;;
4174;SDS011;2101;48.290;14.382;2023-08-17T22:08:10;17.60;;;4.00;;
4174;SDS011;2101;48.290;14.382;2023-08-17T22:10:36;22.27;;;3.97;;
4174;SDS011;2101;48.290;14.382;2023-08-17T22:13:02;25.60;;;3.57;;
4174;SDS011;2101;48.290;14.382;2023-08-17T22:15:28;16.77;;;3.57;;
4174;SDS011;2101;48.290;14.382;2023-08-17T22:17:54;20.40;;;3.80;;
4174;SDS011;2101;48.290;14.382;2023-08-17T22:20:21;20.23;;;3.73;;
4174;SDS011;2101;48.290;14.382;2023-08-17T22:22:47;21.10;;;3.27;;
4174;SDS011;2101;48.290;14.382;2023-08-17T22:25:13;18.37;;;3.00;;
4174;SDS011;2101;48.290;14.382;2023-08-17T22:27:39;16.93;;;3.10;;
4174;SDS011;2101;48.290;14.382;2023-08-17T22:30:05;18.90;;;3.90;;
4174;SDS011;2101;48.290;14.382;2023-08-17T22:32:35;18.47;;;3.63;;
4174;SDS011;2101;48.290;14.382;2023-08-17T22:35:04;17.90;;;3.93;;
4174;SDS011;2101;48.290;14.382;2023-08-17T22:37:35;19.00;;;3.37;;
4174;SDS011;2101;48.290;14.382;2023-08-17T22:40:02;16.80;;;3.33;;
4174;SDS011;2101;48.290;14.382;2023-08-17T22:42:28;21.80;;;4.10;;
4174;SDS011;2101;48.290;14.382;2023-08-17T22:44:54;17.50;;;3.33;;
4174;SDS011;2101;48.290;14.382;2023-08-17T22:47:20;17.07;;;3.50;;
4174;SDS011;2101;48.290;14.382;2023-08-17T22:49:45;15.83;;;3.10;;
4174;SDS011;2101;48.290;14.382;2023-08-17T22:52:11;18.77;;;4.03;;
4174;SDS011;2101;48.290;14.382;2023-08-17T22:54:38;17.00;;;3.50;;
4174;SDS011;2101;48.290;14.382;2023-08-17T22:57:07;19.10;;;3.47;;
4174;SDS011;2101;48.290;14.382;2023-08-17T22:59:35;21.87;;;3.47;;